Time;durP1;ratioP1;P1;durP2;ratioP2;P2;SDS_P1;SDS_P2;PMS_P1;PMS_P2;Temp;Humidity;BMP_temperature;BMP_pressure;BME280_temperature;BME280_humidity;BME280_pressure;Samples;Min_cycle;Max_cycle;Signal;HPM_P1;HPM_P2
2023/07/31 00:00:48;;;;;;;4.85;4.20;;;;;;;;;;9863594;29;20561;-71
2023/07/31 00:05:40;;;;;;;5.10;3.65;;;;;;;;;;9853867;29;20422;-70
2023/07/31 00:10:33;;;;;;;4.10;3.80;;;;;;;;;;9849761;29;20055;-70
2023/07/31 00:15:25;;;;;;;5.90;4.40;;;;;;;;;;9859403;29;20067;-71
2023/07/31 00:20:17;;;;;;;8.57;4.35;;;;;;;;;;9868950;29;20043;-70
2023/07/31 00:25:10;;;;;;;7.15;4.65;;;;;;;;;;9868806;29;20157;-72
2023/07/31 00:30:04;;;;;;;5.70;4.47;;;;;;;;;;9861803;29;20431;-72
2023/07/31 00:34:57;;;;;;;4.60;3.40;;;;;;;;;;9858398;29;20143;-72
2023/07/31 00:39:49;;;;;;;4.28;3.88;;;;;;;;;;9864286;29;20716;-71
2023/07/31 00:44:40;;;;;;;9.45;3.67;;;;;;;;;;9865365;29;20138;-71
2023/07/31 00:49:32;;;;;;;4.95;3.70;;;;;;;;;;9860497;29;20072;-70
2023/07/31 00:54:25;;;;;;;5.07;4.05;;;;;;;;;;9866293;29;20043;-72
2023/07/31 00:59:18;;;;;;;4.18;3.78;;;;;;;;;;9857041;29;20071;-72
2023/07/31 01:04:11;;;;;;;5.50;4.10;;;;;;;;;;9871730;29;20114;-72
2023/07/31 01:09:10;;;;;;;4.93;4.47;;;;;;;;;;9879179;29;20477;-70
2023/07/31 01:14:02;;;;;;;7.63;5.63;;;;;;;;;;9879817;29;20427;-72
2023/07/31 01:18:54;;;;;;;7.50;4.38;;;;;;;;;;9879448;29;20043;-72
2023/07/31 01:24:13;;;;;;;7.28;5.57;;;;;;;;;;9866778;29;20044;-73
2023/07/31 01:29:17;;;;;;;;;;;;;;;;;;9879753;29;20047;-72
2023/07/31 01:34:11;;;;;;;5.50;4.70;;;;;;;;;;9871430;29;19922;-72
2023/07/31 01:39:04;;;;;;;5.28;4.75;;;;;;;;;;9880695;29;20422;-72
2023/07/31 01:43:56;;;;;;;7.35;4.50;;;;;;;;;;9871214;29;20185;-72
2023/07/31 01:48:48;;;;;;;5.03;4.47;;;;;;;;;;9875968;29;20107;-72
2023/07/31 01:53:40;;;;;;;6.47;4.93;;;;;;;;;;9859169;29;20043;-72
2023/07/31 01:58:32;;;;;;;6.53;4.38;;;;;;;;;;9878560;29;20075;-72
2023/07/31 02:03:24;;;;;;;4.55;3.90;;;;;;;;;;9880630;29;20039;-72
2023/07/31 02:08:17;;;;;;;6.20;4.00;;;;;;;;;;9878166;29;20083;-72
2023/07/31 02:13:09;;;;;;;6.10;4.68;;;;;;;;;;9863494;29;20519;-72
2023/07/31 02:18:01;;;;;;;7.65;5.18;;;;;;;;;;9873160;29;20051;-72
2023/07/31 02:22:53;;;;;;;4.82;4.43;;;;;;;;;;9874431;29;20044;-71
2023/07/31 02:27:45;;;;;;;6.78;5.30;;;;;;;;;;9876023;29;20067;-71
2023/07/31 02:32:38;;;;;;;4.32;3.92;;;;;;;;;;9872307;29;20485;-72
2023/07/31 02:37:30;;;;;;;9.18;4.53;;;;;;;;;;9861274;29;20094;-71
2023/07/31 02:42:22;;;;;;;5.72;4.25;;;;;;;;;;9874362;29;20087;-71
2023/07/31 02:47:14;;;;;;;9.50;5.43;;;;;;;;;;9864162;29;20071;-72
2023/07/31 02:52:06;;;;;;;6.13;4.13;;;;;;;;;;9854201;29;20475;-72
2023/07/31 02:56:58;;;;;;;4.32;3.60;;;;;;;;;;9870252;29;20050;-72
2023/07/31 03:01:52;;;;;;;5.60;3.53;;;;;;;;;;9868883;29;20488;-71
2023/07/31 03:06:44;;;;;;;4.55;4.05;;;;;;;;;;9872185;29;20082;-72
2023/07/31 03:11:36;;;;;;;5.00;4.50;;;;;;;;;;9871559;29;20051;-72
2023/07/31 03:16:28;;;;;;;6.72;4.15;;;;;;;;;;9870455;29;20087;-71
2023/07/31 03:21:20;;;;;;;6.43;4.25;;;;;;;;;;9870264;29;20048;-72
2023/07/31 03:26:11;;;;;;;6.78;5.35;;;;;;;;;;9869613;29;20122;-72
2023/07/31 03:31:03;;;;;;;6.75;5.88;;;;;;;;;;9850273;29;20099;-72
2023/07/31 03:35:56;;;;;;;7.45;5.22;;;;;;;;;;9870973;29;20296;-70
2023/07/31 03:40:48;;;;;;;13.30;4.57;;;;;;;;;;9861255;29;20060;-71
2023/07/31 03:45:40;;;;;;;7.47;4.70;;;;;;;;;;9846467;29;20070;-71
2023/07/31 03:50:31;;;;;;;5.78;5.28;;;;;;;;;;9845442;29;20055;-71
2023/07/31 03:55:25;;;;;;;5.15;4.13;;;;;;;;;;9861312;29;20044;-72
2023/07/31 04:00:17;;;;;;;4.35;3.63;;;;;;;;;;9866424;29;20126;-71
2023/07/31 04:05:09;;;;;;;4.70;3.53;;;;;;;;;;9851046;29;20084;-72
2023/07/31 04:10:01;;;;;;;8.55;3.40;;;;;;;;;;9855396;29;20139;-69
2023/07/31 04:14:53;;;;;;;5.95;3.70;;;;;;;;;;9853134;29;20047;-72
2023/07/31 04:19:45;;;;;;;3.30;2.97;;;;;;;;;;9851291;29;20040;-71
2023/07/31 04:24:36;;;;;;;4.90;4.10;;;;;;;;;;9846663;29;20076;-73
2023/07/31 04:29:28;;;;;;;6.35;4.47;;;;;;;;;;9855224;29;20048;-71
2023/07/31 04:34:20;;;;;;;8.48;3.65;;;;;;;;;;9860690;29;20099;-71
2023/07/31 04:39:12;;;;;;;4.85;3.30;;;;;;;;;;9862854;29;20079;-71
2023/07/31 04:44:04;;;;;;;4.32;3.25;;;;;;;;;;9860762;28;20043;-71
2023/07/31 04:48:56;;;;;;;5.35;3.70;;;;;;;;;;9866574;29;20078;-71
2023/07/31 04:53:48;;;;;;;4.55;4.03;;;;;;;;;;9864637;29;20589;-70
2023/07/31 04:58:40;;;;;;;4.50;3.72;;;;;;;;;;9870854;29;20095;-71
2023/07/31 05:03:32;;;;;;;7.07;4.25;;;;;;;;;;9869418;29;20044;-69
2023/07/31 05:08:24;;;;;;;10.70;5.78;;;;;;;;;;9868306;29;20127;-70
2023/07/31 05:13:15;;;;;;;7.93;6.07;;;;;;;;;;9867131;29;20431;-70
2023/07/31 05:18:07;;;;;;;8.25;7.20;;;;;;;;;;9866425;29;20126;-71
2023/07/31 05:22:59;;;;;;;8.13;6.10;;;;;;;;;;9863714;29;20134;-71
2023/07/31 05:27:51;;;;;;;9.32;7.15;;;;;;;;;;9866153;29;20079;-71
2023/07/31 05:32:43;;;;;;;9.85;5.97;;;;;;;;;;9859982;29;20075;-71
2023/07/31 05:37:35;;;;;;;8.45;6.22;;;;;;;;;;9848720;29;20040;-72
2023/07/31 05:42:27;;;;;;;8.13;6.40;;;;;;;;;;9857084;29;20401;-74
2023/07/31 05:47:18;;;;;;;6.25;5.43;;;;;;;;;;9841900;29;20044;-73
2023/07/31 05:52:10;;;;;;;7.25;5.40;;;;;;;;;;9856095;29;20075;-73
2023/07/31 05:57:02;;;;;;;7.05;6.35;;;;;;;;;;9851004;29;20043;-72
2023/07/31 06:01:54;;;;;;;13.05;7.28;;;;;;;;;;9869612;29;20148;-74
2023/07/31 06:06:46;;;;;;;12.63;10.88;;;;;;;;;;9855225;29;20048;-72
2023/07/31 06:11:38;;;;;;;14.18;10.68;;;;;;;;;;9854312;29;20051;-73
2023/07/31 06:16:30;;;;;;;17.10;9.77;;;;;;;;;;9865207;29;20056;-73
2023/07/31 06:21:22;;;;;;;13.50;9.65;;;;;;;;;;9861809;29;20075;-72
2023/07/31 06:26:14;;;;;;;11.00;8.30;;;;;;;;;;9859426;29;20621;-73
2023/07/31 06:31:06;;;;;;;11.45;8.25;;;;;;;;;;9864364;29;20384;-72
2023/07/31 06:35:58;;;;;;;10.88;9.88;;;;;;;;;;9854591;29;20351;-72
2023/07/31 06:40:50;;;;;;;11.05;9.95;;;;;;;;;;9866372;29;20059;-72
2023/07/31 06:45:42;;;;;;;12.05;8.73;;;;;;;;;;9867375;29;20040;-72
2023/07/31 06:50:34;;;;;;;12.35;9.63;;;;;;;;;;9867798;28;20047;-72
2023/07/31 06:55:26;;;;;;;12.23;8.25;;;;;;;;;;9869863;29;20107;-73
2023/07/31 07:00:19;;;;;;;11.45;9.15;;;;;;;;;;9861579;29;20132;-72
2023/07/31 07:05:11;;;;;;;11.25;10.13;;;;;;;;;;9852266;29;20067;-73
2023/07/31 07:10:04;;;;;;;16.05;10.38;;;;;;;;;;9851449;29;20055;-72
2023/07/31 07:15:00;;;;;;;11.73;10.13;;;;;;;;;;9860603;29;20047;-72
2023/07/31 07:19:52;;;;;;;11.85;10.50;;;;;;;;;;9865240;29;20075;-73
2023/07/31 07:24:44;;;;;;;13.32;9.98;;;;;;;;;;9874975;29;20429;-72
2023/07/31 07:29:36;;;;;;;14.20;10.73;;;;;;;;;;9867345;29;20062;-72
2023/07/31 07:34:28;;;;;;;12.10;10.90;;;;;;;;;;9867331;29;20040;-72
2023/07/31 07:39:20;;;;;;;10.55;9.23;;;;;;;;;;9863702;29;20471;-71
2023/07/31 07:44:12;;;;;;;15.05;10.52;;;;;;;;;;9864709;29;20055;-72
2023/07/31 07:49:04;;;;;;;13.13;9.15;;;;;;;;;;9864820;29;20498;-71
2023/07/31 07:53:56;;;;;;;11.30;7.65;;;;;;;;;;9866422;29;20481;-72
2023/07/31 07:58:50;;;;;;;12.32;8.50;;;;;;;;;;9868543;29;20146;-73
2023/07/31 08:03:41;;;;;;;11.98;8.82;;;;;;;;;;9867298;29;20431;-71
2023/07/31 08:08:33;;;;;;;10.02;8.85;;;;;;;;;;9861886;29;20043;-71
2023/07/31 08:13:25;;;;;;;13.18;8.18;;;;;;;;;;9864448;29;20074;-71
2023/07/31 08:18:17;;;;;;;11.52;8.70;;;;;;;;;;9865182;29;20506;-71
2023/07/31 08:23:09;;;;;;;8.32;7.45;;;;;;;;;;9867083;29;20451;-72
2023/07/31 08:28:02;;;;;;;17.10;7.90;;;;;;;;;;9868835;28;20048;-72
2023/07/31 08:32:54;;;;;;;13.73;6.53;;;;;;;;;;9866463;29;20052;-73
2023/07/31 08:37:46;;;;;;;8.00;7.20;;;;;;;;;;9867033;29;20075;-73
2023/07/31 08:42:48;;;;;;;10.60;6.95;;;;;;;;;;9866733;29;20103;-73
2023/07/31 08:47:41;;;;;;;8.30;5.15;;;;;;;;;;9865042;29;20079;-71
2023/07/31 08:52:33;;;;;;;6.70;5.90;;;;;;;;;;9864002;29;20549;-71
2023/07/31 08:57:25;;;;;;;9.57;6.75;;;;;;;;;;9864318;29;20233;-73
2023/07/31 09:02:18;;;;;;;7.68;6.07;;;;;;;;;;9866268;29;20051;-71
2023/07/31 09:07:10;;;;;;;8.02;5.38;;;;;;;;;;9864380;29;20048;-73
2023/07/31 09:12:02;;;;;;;6.78;4.85;;;;;;;;;;9863887;29;20419;-71
2023/07/31 09:16:55;;;;;;;8.38;3.88;;;;;;;;;;9865419;29;20086;-72
2023/07/31 09:21:50;;;;;;;7.60;4.75;;;;;;;;;;9865059;29;20043;-72
2023/07/31 09:26:42;;;;;;;5.38;2.85;;;;;;;;;;9870266;29;20043;-73
2023/07/31 09:31:41;;;;;;;3.85;2.70;;;;;;;;;;9873457;29;20126;-72
2023/07/31 09:36:42;;;;;;;4.07;2.70;;;;;;;;;;9871791;29;20458;-71
2023/07/31 09:41:39;;;;;;;2.78;2.47;;;;;;;;;;9874396;29;20111;-70
2023/07/31 09:46:31;;;;;;;5.53;3.30;;;;;;;;;;9872678;29;20051;-72
2023/07/31 09:51:30;;;;;;;5.25;3.40;;;;;;;;;;9872406;29;20064;-73
2023/07/31 09:56:23;;;;;;;4.80;2.75;;;;;;;;;;9871429;29;20048;-72
2023/07/31 10:01:15;;;;;;;8.75;3.70;;;;;;;;;;9871108;29;20406;-73
2023/07/31 10:06:07;;;;;;;8.20;3.42;;;;;;;;;;9873325;29;20158;-72
2023/07/31 10:11:00;;;;;;;3.65;2.80;;;;;;;;;;9860979;29;20059;-73
2023/07/31 10:15:53;;;;;;;3.53;2.88;;;;;;;;;;9870955;29;20048;-73
2023/07/31 10:20:46;;;;;;;2.30;2.10;;;;;;;;;;9868864;29;20066;-73
2023/07/31 10:25:38;;;;;;;2.45;2.10;;;;;;;;;;9870642;29;20135;-72
2023/07/31 10:30:32;;;;;;;4.18;2.10;;;;;;;;;;9868665;29;20111;-73
2023/07/31 10:35:24;;;;;;;2.75;2.45;;;;;;;;;;9867618;29;20925;-72
2023/07/31 10:40:24;;;;;;;3.35;2.83;;;;;;;;;;9868967;29;20051;-72
2023/07/31 10:45:32;;;;;;;3.08;2.67;;;;;;;;;;9855572;29;20056;-73
2023/07/31 10:50:25;;;;;;;3.28;2.60;;;;;;;;;;9871210;29;20051;-71
2023/07/31 10:55:33;;;;;;;5.32;3.28;;;;;;;;;;9871117;29;20075;-70
2023/07/31 11:00:25;;;;;;;;;;;;;;;;;;9872468;29;20107;-72
2023/07/31 11:05:17;;;;;;;4.38;2.60;;;;;;;;;;9870386;29;20038;-72
2023/07/31 11:10:09;;;;;;;3.00;2.75;;;;;;;;;;9866171;29;20558;-73
2023/07/31 11:15:00;;;;;;;3.63;2.40;;;;;;;;;;9865370;29;20717;-72
2023/07/31 11:19:52;;;;;;;2.75;2.45;;;;;;;;;;9867851;29;20055;-72
2023/07/31 11:24:44;;;;;;;3.47;2.83;;;;;;;;;;9868431;29;20094;-74
2023/07/31 11:29:36;;;;;;;3.58;2.72;;;;;;;;;;9869648;29;20426;-70
2023/07/31 11:34:28;;;;;;;4.22;3.00;;;;;;;;;;9867628;29;20044;-70
2023/07/31 11:39:19;;;;;;;5.97;3.20;;;;;;;;;;9860224;29;20050;-70
2023/07/31 11:44:11;;;;;;;4.10;2.80;;;;;;;;;;9851434;29;20388;-70
2023/07/31 11:49:18;;;;;;;4.75;2.72;;;;;;;;;;9865035;29;20075;-71
2023/07/31 11:54:12;;;;;;;4.03;2.70;;;;;;;;;;9859752;29;20523;-72
2023/07/31 11:59:05;;;;;;;2.72;2.50;;;;;;;;;;9865714;29;20430;-72
2023/07/31 12:03:57;;;;;;;5.53;2.90;;;;;;;;;;9835580;29;20078;-72
2023/07/31 12:08:49;;;;;;;4.57;2.55;;;;;;;;;;9845852;29;20131;-72
2023/07/31 12:13:41;;;;;;;3.67;2.55;;;;;;;;;;9845215;29;20126;-72
2023/07/31 12:18:35;;;;;;;3.45;2.80;;;;;;;;;;9864563;29;20043;-72
2023/07/31 12:23:29;;;;;;;6.18;3.13;;;;;;;;;;9847495;29;20047;-72
2023/07/31 12:28:22;;;;;;;3.47;3.00;;;;;;;;;;9854957;29;20458;-72
2023/07/31 12:33:14;;;;;;;5.38;2.80;;;;;;;;;;9856347;29;20075;-71
2023/07/31 12:38:06;;;;;;;3.03;2.75;;;;;;;;;;9865399;29;20052;-72
2023/07/31 12:43:02;;;;;;;4.65;2.90;;;;;;;;;;9862150;29;20518;-72
2023/07/31 12:47:54;;;;;;;3.13;2.80;;;;;;;;;;9844876;29;20055;-72
2023/07/31 12:52:46;;;;;;;5.28;2.40;;;;;;;;;;9864958;29;20058;-72
2023/07/31 12:57:39;;;;;;;3.10;2.80;;;;;;;;;;9859969;29;20052;-73
2023/07/31 13:02:31;;;;;;;3.90;2.85;;;;;;;;;;9862691;28;20047;-73
2023/07/31 13:07:23;;;;;;;2.75;2.53;;;;;;;;;;9851061;29;20131;-73
2023/07/31 13:12:14;;;;;;;3.00;2.38;;;;;;;;;;9857132;29;20147;-71
2023/07/31 13:17:06;;;;;;;3.38;2.83;;;;;;;;;;9857990;29;20110;-72
2023/07/31 13:21:58;;;;;;;4.55;2.50;;;;;;;;;;9865827;29;20383;-72
2023/07/31 13:26:50;;;;;;;5.72;2.40;;;;;;;;;;9864127;29;20474;-72
2023/07/31 13:31:42;;;;;;;3.05;2.25;;;;;;;;;;9857687;29;20072;-73
2023/07/31 13:36:34;;;;;;;3.58;2.30;;;;;;;;;;9855083;29;20044;-71
2023/07/31 13:41:26;;;;;;;2.53;2.15;;;;;;;;;;9857476;29;20257;-72
2023/07/31 13:46:18;;;;;;;4.07;2.25;;;;;;;;;;9834487;29;20075;-71
2023/07/31 13:51:10;;;;;;;5.97;2.22;;;;;;;;;;9855022;29;20080;-71
2023/07/31 13:56:02;;;;;;;3.53;2.33;;;;;;;;;;9851950;29;20248;-71
2023/07/31 14:00:54;;;;;;;3.88;2.00;;;;;;;;;;9864185;28;20347;-71
2023/07/31 14:05:46;;;;;;;12.50;2.40;;;;;;;;;;9836114;29;20122;-72
2023/07/31 14:10:38;;;;;;;5.63;2.10;;;;;;;;;;9865589;29;20051;-71
2023/07/31 14:15:31;;;;;;;5.43;2.67;;;;;;;;;;9869308;29;20070;-72
2023/07/31 14:20:23;;;;;;;3.47;2.67;;;;;;;;;;9869651;29;20385;-71
2023/07/31 14:25:15;;;;;;;2.65;1.85;;;;;;;;;;9871102;29;20367;-72
2023/07/31 14:30:08;;;;;;;5.35;2.25;;;;;;;;;;9869607;29;20139;-71
2023/07/31 14:35:00;;;;;;;2.08;1.88;;;;;;;;;;9870742;29;20052;-70
2023/07/31 14:39:52;;;;;;;2.13;1.98;;;;;;;;;;9871216;29;20055;-72
2023/07/31 14:44:44;;;;;;;3.72;2.05;;;;;;;;;;9847179;29;20043;-71
2023/07/31 14:49:35;;;;;;;2.15;1.95;;;;;;;;;;9885289;29;20483;-71
2023/07/31 14:54:27;;;;;;;8.25;2.30;;;;;;;;;;9872461;29;20067;-72
2023/07/31 14:59:19;;;;;;;3.78;1.70;;;;;;;;;;9873073;29;20134;-72
2023/07/31 15:04:11;;;;;;;3.33;1.75;;;;;;;;;;9871611;29;20047;-71
2023/07/31 15:09:03;;;;;;;3.60;1.95;;;;;;;;;;9872448;29;20382;-71
2023/07/31 15:13:55;;;;;;;4.40;2.22;;;;;;;;;;9871489;29;20051;-72
2023/07/31 15:18:47;;;;;;;3.65;1.85;;;;;;;;;;9871476;28;20047;-72
2023/07/31 15:23:39;;;;;;;5.25;3.00;;;;;;;;;;9869604;29;20047;-72
2023/07/31 15:28:32;;;;;;;6.60;2.10;;;;;;;;;;9871601;29;20481;-71
2023/07/31 15:33:24;;;;;;;3.80;1.50;;;;;;;;;;9870213;29;20539;-71
2023/07/31 15:38:16;;;;;;;5.40;2.03;;;;;;;;;;9868685;29;20051;-72
2023/07/31 15:43:07;;;;;;;3.83;1.95;;;;;;;;;;9869026;29;20071;-72
2023/07/31 15:47:59;;;;;;;2.13;1.60;;;;;;;;;;9869923;29;20040;-72
2023/07/31 15:52:51;;;;;;;3.42;1.67;;;;;;;;;;9868678;29;20142;-72
2023/07/31 15:57:43;;;;;;;2.42;1.70;;;;;;;;;;9864737;28;20124;-72
2023/07/31 16:02:35;;;;;;;5.97;2.45;;;;;;;;;;9868207;28;20130;-72
2023/07/31 16:07:27;;;;;;;1.95;1.77;;;;;;;;;;9867420;29;20054;-72
2023/07/31 16:12:19;;;;;;;2.47;1.80;;;;;;;;;;9868273;29;20613;-72
2023/07/31 16:17:11;;;;;;;3.95;2.00;;;;;;;;;;9864603;29;20094;-73
2023/07/31 16:22:03;;;;;;;2.55;2.00;;;;;;;;;;9871775;29;20063;-72
2023/07/31 16:26:55;;;;;;;2.17;1.67;;;;;;;;;;9880397;28;20056;-72
2023/07/31 16:31:47;;;;;;;8.43;1.92;;;;;;;;;;9868834;29;20047;-72
2023/07/31 16:36:48;;;;;;;32.67;3.33;;;;;;;;;;9867022;29;20047;-72
2023/07/31 16:41:40;;;;;;;3.30;1.35;;;;;;;;;;9867846;29;20093;-71
2023/07/31 16:46:33;;;;;;;6.43;1.63;;;;;;;;;;9869078;29;20044;-71
2023/07/31 16:51:26;;;;;;;3.38;1.40;;;;;;;;;;9868505;29;20044;-70
2023/07/31 16:56:17;;;;;;;5.03;1.30;;;;;;;;;;9857990;29;20107;-69
2023/07/31 17:01:09;;;;;;;0.90;0.90;;;;;;;;;;9844200;29;20048;-71
2023/07/31 17:06:01;;;;;;;1.20;1.10;;;;;;;;;;9863843;29;20048;-71
2023/07/31 17:10:53;;;;;;;2.05;1.10;;;;;;;;;;9862456;29;20052;-70
2023/07/31 17:15:45;;;;;;;1.20;1.10;;;;;;;;;;9856520;29;20316;-71
2023/07/31 17:20:37;;;;;;;3.38;1.25;;;;;;;;;;9851853;29;20133;-70
2023/07/31 17:25:29;;;;;;;15.13;2.80;;;;;;;;;;9847785;29;20052;-70
2023/07/31 17:30:20;;;;;;;1.30;1.20;;;;;;;;;;9860553;29;20075;-70
2023/07/31 17:35:12;;;;;;;2.15;1.58;;;;;;;;;;9859040;29;20087;-71
2023/07/31 17:40:05;;;;;;;3.20;1.65;;;;;;;;;;9863086;29;20082;-71
2023/07/31 17:44:57;;;;;;;3.42;1.30;;;;;;;;;;9849455;29;20044;-69
2023/07/31 17:49:49;;;;;;;1.85;1.70;;;;;;;;;;9872696;29;20133;-71
2023/07/31 17:54:41;;;;;;;1.23;1.13;;;;;;;;;;9843288;29;20048;-68
2023/07/31 17:59:33;;;;;;;5.28;2.17;;;;;;;;;;9861909;29;20043;-69
2023/07/31 18:04:26;;;;;;;1.63;1.30;;;;;;;;;;9851353;29;20091;-69
2023/07/31 18:09:18;;;;;;;2.33;2.00;;;;;;;;;;9872140;29;20458;-68
2023/07/31 18:14:10;;;;;;;1.70;1.40;;;;;;;;;;9873916;29;20126;-69
2023/07/31 18:19:02;;;;;;;1.75;1.48;;;;;;;;;;9874223;29;20466;-68
2023/07/31 18:23:53;;;;;;;1.55;1.45;;;;;;;;;;9873130;29;20118;-68
2023/07/31 18:28:48;;;;;;;2.67;1.65;;;;;;;;;;9874400;29;20051;-70
2023/07/31 18:33:40;;;;;;;3.45;2.17;;;;;;;;;;9877195;29;20051;-72
2023/07/31 18:38:32;;;;;;;4.28;2.00;;;;;;;;;;9862614;29;20634;-71
2023/07/31 18:43:24;;;;;;;4.80;1.92;;;;;;;;;;9859988;29;20086;-69
2023/07/31 18:48:16;;;;;;;2.30;1.95;;;;;;;;;;9870653;29;20076;-70
2023/07/31 18:53:07;;;;;;;2.28;2.03;;;;;;;;;;9864695;29;20107;-68
2023/07/31 18:57:59;;;;;;;3.13;2.35;;;;;;;;;;9870046;29;20075;-68
2023/07/31 19:02:51;;;;;;;5.25;2.10;;;;;;;;;;9862933;29;20466;-69
2023/07/31 19:07:43;;;;;;;5.88;1.95;;;;;;;;;;9858525;29;20067;-70
2023/07/31 19:12:37;;;;;;;2.75;2.17;;;;;;;;;;9866631;29;20158;-70
2023/07/31 19:17:29;;;;;;;3.67;3.13;;;;;;;;;;9864148;29;20095;-69
2023/07/31 19:22:21;;;;;;;3.33;3.03;;;;;;;;;;9863223;29;20054;-69
2023/07/31 19:27:13;;;;;;;3.55;2.67;;;;;;;;;;9832941;29;20136;-69
2023/07/31 19:32:05;;;;;;;5.30;2.42;;;;;;;;;;9871316;29;20082;-70
2023/07/31 19:36:57;;;;;;;5.50;3.15;;;;;;;;;;9856142;29;20040;-70
2023/07/31 19:41:49;;;;;;;3.17;2.58;;;;;;;;;;9857908;29;20056;-69
2023/07/31 19:46:41;;;;;;;4.90;2.60;;;;;;;;;;9862462;29;20127;-69
2023/07/31 19:51:33;;;;;;;3.97;2.88;;;;;;;;;;9869492;29;20083;-69
2023/07/31 19:56:25;;;;;;;2.50;2.30;;;;;;;;;;9872688;29;20048;-69
2023/07/31 20:01:20;;;;;;;9.43;3.75;;;;;;;;;;9873737;29;20439;-69
2023/07/31 20:06:12;;;;;;;3.10;2.58;;;;;;;;;;9871692;29;20436;-69
2023/07/31 20:11:04;;;;;;;3.25;2.63;;;;;;;;;;9871126;29;20434;-69
2023/07/31 20:15:57;;;;;;;2.17;1.98;;;;;;;;;;9868082;29;20047;-68
2023/07/31 20:20:49;;;;;;;4.43;3.53;;;;;;;;;;9867039;29;20059;-69
2023/07/31 20:25:40;;;;;;;3.72;2.70;;;;;;;;;;9868478;29;20075;-69
2023/07/31 20:30:32;;;;;;;3.83;2.80;;;;;;;;;;9871382;29;20047;-69
2023/07/31 20:35:24;;;;;;;7.57;3.08;;;;;;;;;;9871503;29;20043;-69
2023/07/31 20:40:16;;;;;;;2.92;2.30;;;;;;;;;;9871326;29;20498;-69
2023/07/31 20:45:08;;;;;;;2.60;2.40;;;;;;;;;;9870905;29;20076;-70
2023/07/31 20:50:00;;;;;;;6.18;2.65;;;;;;;;;;9871123;29;20462;-69
2023/07/31 20:54:52;;;;;;;3.00;2.47;;;;;;;;;;9868471;29;20051;-69
2023/07/31 20:59:44;;;;;;;5.25;2.78;;;;;;;;;;9866063;29;20055;-69
2023/07/31 21:04:36;;;;;;;5.13;3.00;;;;;;;;;;9866767;29;20079;-69
2023/07/31 21:09:29;;;;;;;9.93;2.97;;;;;;;;;;9869195;29;20059;-70
2023/07/31 21:14:20;;;;;;;3.40;2.58;;;;;;;;;;9869162;29;20090;-71
2023/07/31 21:19:13;;;;;;;3.35;2.95;;;;;;;;;;9869078;29;20131;-70
2023/07/31 21:24:05;;;;;;;3.28;2.97;;;;;;;;;;9839022;29;20048;-70
2023/07/31 21:28:57;;;;;;;5.13;3.70;;;;;;;;;;9873064;29;20095;-69
2023/07/31 21:33:49;;;;;;;4.53;3.58;;;;;;;;;;9876212;29;20059;-69
2023/07/31 21:38:41;;;;;;;3.47;3.15;;;;;;;;;;9873591;29;20415;-69
2023/07/31 21:43:33;;;;;;;3.58;2.83;;;;;;;;;;9875427;29;20098;-69
2023/07/31 21:48:25;;;;;;;3.17;2.88;;;;;;;;;;9874362;29;20110;-68
2023/07/31 21:53:16;;;;;;;2.95;2.75;;;;;;;;;;9874669;29;20063;-69
2023/07/31 21:58:08;;;;;;;5.88;2.90;;;;;;;;;;9873619;29;20064;-68
2023/07/31 22:03:00;;;;;;;5.93;3.25;;;;;;;;;;9854739;29;20051;-69
2023/07/31 22:07:52;;;;;;;2.92;2.70;;;;;;;;;;9868993;29;20158;-69
2023/07/31 22:12:44;;;;;;;4.47;3.20;;;;;;;;;;9873367;29;20055;-69
2023/07/31 22:17:36;;;;;;;3.20;2.90;;;;;;;;;;9870390;29;20044;-69
2023/07/31 22:22:28;;;;;;;3.72;3.33;;;;;;;;;;9873562;29;20327;-70
2023/07/31 22:27:19;;;;;;;3.65;3.10;;;;;;;;;;9872202;29;20048;-68
2023/07/31 22:32:11;;;;;;;4.47;3.08;;;;;;;;;;9872784;29;20134;-69
2023/07/31 22:37:03;;;;;;;3.55;3.25;;;;;;;;;;9874750;29;20382;-69
2023/07/31 22:41:55;;;;;;;4.10;3.45;;;;;;;;;;9873185;29;20103;-69
2023/07/31 22:46:47;;;;;;;3.90;3.38;;;;;;;;;;9859123;29;20442;-69
2023/07/31 22:51:39;;;;;;;6.68;3.63;;;;;;;;;;9844968;29;20059;-69
2023/07/31 22:56:31;;;;;;;6.82;3.58;;;;;;;;;;9871453;29;20074;-71
2023/07/31 23:01:24;;;;;;;4.38;3.53;;;;;;;;;;9870150;29;20146;-70
2023/07/31 23:06:16;;;;;;;7.57;3.30;;;;;;;;;;9871743;29;20050;-71
2023/07/31 23:11:08;;;;;;;4.20;3.50;;;;;;;;;;9873032;29;20052;-71
2023/07/31 23:16:00;;;;;;;3.33;3.03;;;;;;;;;;9871602;29;20150;-71
2023/07/31 23:20:53;;;;;;;6.53;3.72;;;;;;;;;;9860508;29;20045;-68
2023/07/31 23:25:48;;;;;;;5.18;3.63;;;;;;;;;;9852291;29;20449;-71
2023/07/31 23:30:40;;;;;;;4.65;3.38;;;;;;;;;;9861406;29;20059;-70
2023/07/31 23:35:33;;;;;;;7.60;3.80;;;;;;;;;;9866539;29;20088;-74
2023/07/31 23:40:25;;;;;;;6.38;4.13;;;;;;;;;;9866026;29;20048;-74
2023/07/31 23:45:19;;;;;;;3.78;3.03;;;;;;;;;;9865175;29;20056;-72
2023/07/31 23:50:14;;;;;;;3.70;3.25;;;;;;;;;;9863709;29;20040;-74
2023/07/31 23:55:07;;;;;;;5.45;4.07;;;;;;;;;;9864871;29;20376;-72
2023/07/31 23:59:59;;;;;;;8.65;4.13;;;;;;;;;;9862674;29;20140;-74
